Airport View

Enter AWOS ICAO identifier for current METAR.

KFNL for example

KPIT 271851Z 24003KT 10SM FEW009 BKN014 BKN028 19/16 A2991 RMK AO2 SLP134 T01940161

27 May 2017 19:22

Phone: 412-472-0145

Other Area AWOS: 42PN - KAGC - KBVI - KBTP

TAF KPIT 271735Z 2718/2824 00000KT P6SM BKN010 FM272000 07003KT P6SM BKN035 FM280000 00000KT P6SM SCT060 FM280900 12003KT 3SM BR BKN010 FM281500 15006KT P6SM BKN035 FM281800 17008KT P6SM -SHRA VCTS OVC040CB